Time;durP1;ratioP1;P1;durP2;ratioP2;P2;SDS_P1;SDS_P2;PMS_P1;PMS_P2;Temp;Humidity;BMP_temperature;BMP_pressure;BME280_temperature;BME280_humidity;BME280_pressure;Samples;Min_cycle;Max_cycle;Signal;HPM_P1;HPM_P2
2023/03/13 00:01:32;;;;;;;22.77;10.30;;;2.40;79.00;;;;;;4879575;29;20204;-67
2023/03/13 00:04:01;;;;;;;20.73;9.77;;;2.30;80.80;;;;;;4879661;29;20564;-67
2023/03/13 00:06:32;;;;;;;12.30;7.03;;;2.30;81.10;;;;;;4879384;29;20576;-68
2023/03/13 00:09:02;;;;;;;13.00;7.33;;;2.40;81.30;;;;;;4879398;29;20203;-67
2023/03/13 00:11:32;;;;;;;15.83;7.27;;;2.50;80.30;;;;;;4879394;29;20217;-68
2023/03/13 00:14:03;;;;;;;11.17;6.73;;;2.50;80.50;;;;;;4879280;29;20212;-67
2023/03/13 00:16:33;;;;;;;13.53;7.40;;;2.70;79.00;;;;;;4879113;29;20240;-66
2023/03/13 00:19:02;;;;;;;14.23;6.73;;;2.90;76.50;;;;;;4879224;29;20219;-69
2023/03/13 00:21:31;;;;;;;12.70;7.23;;;3.10;75.30;;;;;;4879344;29;20626;-67
2023/03/13 00:24:02;;;;;;;15.57;7.20;;;3.20;73.90;;;;;;4879212;29;20285;-67
2023/03/13 00:26:31;;;;;;;13.40;7.07;;;3.30;72.70;;;;;;4879161;29;20232;-68
2023/03/13 00:28:59;;;;;;;11.13;7.03;;;3.20;73.20;;;;;;4862527;29;20675;-68
2023/03/13 00:31:29;;;;;;;13.70;6.40;;;3.20;74.10;;;;;;4879239;29;21068;-67
2023/03/13 00:34:00;;;;;;;12.83;6.80;;;3.20;74.50;;;;;;4879113;29;20251;-67
2023/03/13 00:36:31;;;;;;;11.87;6.30;;;3.20;74.60;;;;;;4861680;29;20624;-67
2023/03/13 00:39:04;;;;;;;12.20;5.87;;;3.10;75.60;;;;;;4861987;29;20260;-67
2023/03/13 00:41:36;;;;;;;8.10;5.13;;;3.00;77.10;;;;;;4878979;29;20193;-68
2023/03/13 00:44:05;;;;;;;9.97;5.67;;;2.80;79.50;;;;;;4879055;29;20220;-67
2023/03/13 00:46:34;;;;;;;10.10;5.53;;;2.80;80.80;;;;;;4878815;29;20201;-68
2023/03/13 00:49:03;;;;;;;10.20;5.73;;;2.90;80.10;;;;;;4878823;29;20729;-70
2023/03/13 00:51:34;;;;;;;10.10;6.07;;;2.90;79.30;;;;;;4878804;29;20188;-68
2023/03/13 00:54:04;;;;;;;12.93;5.50;;;3.00;79.10;;;;;;4861910;29;20210;-69
2023/03/13 00:56:33;;;;;;;9.47;5.93;;;3.00;79.40;;;;;;4878761;29;20659;-67
2023/03/13 00:59:03;;;;;;;12.17;6.03;;;3.00;79.10;;;;;;4861913;29;20230;-66
2023/03/13 01:01:33;;;;;;;7.87;4.90;;;3.10;79.60;;;;;;4861799;29;20621;-68
2023/03/13 01:04:04;;;;;;;10.50;5.40;;;3.00;79.90;;;;;;4861835;29;20674;-69
2023/03/13 01:06:35;;;;;;;9.60;5.73;;;2.90;81.80;;;;;;4878564;29;20208;-67
2023/03/13 01:09:07;;;;;;;10.53;5.80;;;3.00;81.80;;;;;;4861780;29;20588;-70
2023/03/13 01:11:39;;;;;;;7.93;5.23;;;3.00;82.20;;;;;;4861855;29;20208;-67
2023/03/13 01:14:10;;;;;;;13.50;5.67;;;3.00;83.00;;;;;;4861860;29;20583;-68
2023/03/13 01:16:39;;;;;;;5.00;4.23;;;3.00;84.20;;;;;;4861671;29;20243;-68
2023/03/13 01:19:10;;;;;;;6.37;4.93;;;2.90;85.80;;;;;;4878281;29;20229;-69
2023/03/13 01:21:41;;;;;;;7.07;4.40;;;3.10;85.70;;;;;;4878298;29;20255;-67
2023/03/13 01:24:12;;;;;;;11.27;5.57;;;3.10;86.80;;;;;;4878244;29;20224;-68
2023/03/13 01:26:41;;;;;;;10.00;4.53;;;3.20;85.90;;;;;;4878314;29;20205;-68
2023/03/13 01:29:09;;;;;;;4.80;4.13;;;3.40;84.70;;;;;;4861593;29;20677;-68
2023/03/13 01:31:38;;;;;;;7.70;4.80;;;3.30;85.50;;;;;;4878193;29;20604;-67
2023/03/13 01:34:10;;;;;;;10.00;5.53;;;3.20;90.00;;;;;;4860804;29;20218;-69
2023/03/13 01:36:38;;;;;;;14.00;6.20;;;3.10;91.30;;;;;;4861586;29;20680;-69
2023/03/13 01:39:07;;;;;;;10.90;5.83;;;3.00;91.90;;;;;;4861489;29;20224;-68
2023/03/13 01:41:38;;;;;;;9.20;5.10;;;3.20;91.80;;;;;;4861512;29;20205;-67
2023/03/13 01:44:18;;;;;;;11.17;5.03;;;3.20;91.90;;;;;;4861327;29;20707;-67
2023/03/13 01:46:47;;;;;;;10.70;5.70;;;3.30;91.40;;;;;;4861614;29;20299;-68
2023/03/13 01:49:27;;;;;;;8.80;5.17;;;3.50;90.60;;;;;;4877966;29;20638;-69
2023/03/13 01:52:25;;;;;;;12.53;5.10;;;3.30;92.00;;;;;;4877895;29;20196;-69
2023/03/13 01:55:18;;;;;;;8.73;5.37;;;3.20;92.70;;;;;;4877676;29;20205;-68
2023/03/13 01:57:53;;;;;;;9.23;5.93;;;3.30;92.40;;;;;;4861172;29;20668;-68
2023/03/13 02:00:26;;;;;;;7.80;4.77;;;3.40;92.50;;;;;;4861115;29;20234;-70
2023/03/13 02:02:58;;;;;;;9.30;5.60;;;3.30;92.50;;;;;;4877974;29;20207;-67
2023/03/13 02:05:29;;;;;;;9.23;5.23;;;3.40;92.90;;;;;;4861036;29;20715;-68
2023/03/13 02:08:01;;;;;;;7.10;5.07;;;3.30;92.90;;;;;;4861049;29;20206;-68
2023/03/13 02:10:34;;;;;;;7.27;4.70;;;3.30;93.30;;;;;;4860883;29;20300;-67
2023/03/13 02:13:04;;;;;;;6.67;5.27;;;3.30;93.10;;;;;;4861033;29;20579;-67
2023/03/13 02:15:34;;;;;;;9.37;5.40;;;3.20;93.90;;;;;;4881167;29;20200;-67
2023/03/13 02:18:03;;;;;;;9.23;5.33;;;3.30;93.90;;;;;;4864591;29;20236;-68
2023/03/13 02:20:31;;;;;;;6.87;5.13;;;3.20;94.10;;;;;;4881301;29;20324;-69
2023/03/13 02:23:07;;;;;;;6.67;5.17;;;3.30;94.00;;;;;;4881395;29;20228;-67
2023/03/13 02:25:43;;;;;;;10.63;5.67;;;3.20;94.20;;;;;;4881453;29;20200;-69
2023/03/13 02:28:18;;;;;;;8.90;5.83;;;3.30;93.80;;;;;;4864695;29;20616;-69
2023/03/13 02:30:50;;;;;;;9.77;5.73;;;3.20;94.50;;;;;;4864656;29;20292;-70
2023/03/13 02:33:21;;;;;;;8.03;5.40;;;3.10;95.10;;;;;;4881248;29;20589;-67
2023/03/13 02:35:50;;;;;;;9.07;5.67;;;3.20;95.10;;;;;;4864534;29;20237;-67
2023/03/13 02:38:24;;;;;;;9.70;5.53;;;3.20;94.50;;;;;;4864335;29;20664;-70
2023/03/13 02:40:56;;;;;;;9.77;5.50;;;3.30;93.90;;;;;;4864288;29;20236;-69
2023/03/13 02:43:30;;;;;;;9.70;6.30;;;3.30;93.90;;;;;;4864370;29;20673;-67
2023/03/13 02:46:09;;;;;;;10.03;6.27;;;3.20;94.10;;;;;;4864281;29;20210;-67
2023/03/13 02:48:44;;;;;;;11.83;5.73;;;3.20;94.30;;;;;;4881066;29;20208;-68
2023/03/13 02:51:17;;;;;;;7.23;5.90;;;3.30;94.50;;;;;;4864212;29;20215;-67
2023/03/13 02:53:48;;;;;;;11.20;6.40;;;3.20;95.10;;;;;;4880825;29;20287;-69
2023/03/13 02:56:22;;;;;;;8.20;5.87;;;3.30;94.90;;;;;;4864235;29;20218;-67
2023/03/13 02:58:50;;;;;;;8.87;6.03;;;3.20;95.70;;;;;;4864130;29;20687;-67
2023/03/13 03:01:23;;;;;;;10.13;6.70;;;3.20;96.40;;;;;;4863963;29;20704;-68
2023/03/13 03:03:52;;;;;;;9.07;7.30;;;3.20;96.70;;;;;;4863986;29;20208;-67
2023/03/13 03:06:21;;;;;;;12.13;6.90;;;3.30;96.50;;;;;;4863899;29;20243;-67
2023/03/13 03:08:50;;;;;;;12.80;6.73;;;3.20;96.80;;;;;;4863829;29;20205;-67
2023/03/13 03:11:20;;;;;;;9.70;6.63;;;3.30;96.90;;;;;;4880595;29;20211;-68
2023/03/13 03:13:55;;;;;;;11.87;6.50;;;3.30;97.20;;;;;;4864021;29;20201;-68
2023/03/13 03:16:24;;;;;;;8.73;6.67;;;3.30;97.70;;;;;;4863705;29;20235;-68
2023/03/13 03:18:53;;;;;;;10.53;6.97;;;3.30;97.80;;;;;;4880354;29;20552;-68
2023/03/13 03:21:22;;;;;;;9.87;6.77;;;3.30;98.20;;;;;;4863599;29;20324;-68
2023/03/13 03:23:52;;;;;;;13.93;7.73;;;3.30;99.60;;;;;;4863637;29;20292;-68
2023/03/13 03:26:22;;;;;;;12.57;7.63;;;3.20;99.90;;;;;;4862433;29;20206;-67
2023/03/13 03:28:51;;;;;;;11.60;7.57;;;3.20;99.90;;;;;;4863399;29;20219;-67
2023/03/13 03:31:20;;;;;;;10.43;7.73;;;3.10;99.90;;;;;;4863382;29;20201;-68
2023/03/13 03:33:49;;;;;;;12.00;8.17;;;3.20;99.90;;;;;;4863457;29;20206;-68
2023/03/13 03:36:21;;;;;;;9.13;7.70;;;3.30;99.90;;;;;;4863305;29;20212;-67
2023/03/13 03:38:51;;;;;;;11.07;8.60;;;3.20;99.90;;;;;;4863373;29;20699;-69
2023/03/13 03:41:25;;;;;;;11.23;8.40;;;3.30;99.90;;;;;;4863198;29;20246;-67
2023/03/13 03:43:55;;;;;;;12.43;8.83;;;3.40;99.90;;;;;;4863147;29;20209;-66
2023/03/13 03:46:28;;;;;;;9.13;7.50;;;3.40;99.90;;;;;;4863118;29;20206;-69
2023/03/13 03:48:57;;;;;;;14.80;8.87;;;3.50;99.90;;;;;;4863150;29;20303;-68
2023/03/13 03:51:25;;;;;;;13.20;9.03;;;3.30;99.90;;;;;;4863143;29;20309;-72
2023/03/13 03:53:54;;;;;;;21.57;9.90;;;3.30;99.90;;;;;;4863130;29;20300;-68
2023/03/13 03:56:23;;;;;;;13.87;9.70;;;3.30;99.90;;;;;;4862945;29;20209;-72
2023/03/13 03:58:57;;;;;;;14.37;8.97;;;3.30;99.90;;;;;;4863012;29;20220;-69
2023/03/13 04:01:44;;;;;;;19.70;10.13;;;3.30;99.90;;;;;;4879679;29;20236;-68
2023/03/13 04:04:15;;;;;;;16.60;9.43;;;3.40;99.90;;;;;;4862920;29;20971;-67
2023/03/13 04:06:47;;;;;;;17.50;10.83;;;3.20;99.90;;;;;;4862883;29;20214;-69
2023/03/13 04:09:16;;;;;;;14.27;9.73;;;3.20;99.90;;;;;;4879393;29;20202;-67
2023/03/13 04:11:44;;;;;;;16.40;10.83;;;3.10;99.90;;;;;;4879515;29;20206;-67
2023/03/13 04:14:14;;;;;;;18.33;10.60;;;3.20;99.90;;;;;;4862867;29;20251;-68
2023/03/13 04:16:43;;;;;;;19.90;10.60;;;3.20;99.90;;;;;;4862485;29;20264;-68
2023/03/13 04:19:14;;;;;;;17.37;10.17;;;3.20;99.90;;;;;;4862647;29;20264;-68
2023/03/13 04:21:44;;;;;;;18.33;11.27;;;3.10;99.90;;;;;;4862431;29;20281;-67
2023/03/13 04:24:16;;;;;;;17.10;11.40;;;3.10;99.90;;;;;;4862453;29;20197;-67
2023/03/13 04:26:45;;;;;;;17.43;10.17;;;3.10;99.90;;;;;;4862495;29;20341;-69
2023/03/13 04:29:17;;;;;;;18.50;11.57;;;3.10;99.90;;;;;;4862460;29;20212;-66
2023/03/13 04:32:01;;;;;;;21.27;11.93;;;3.20;99.90;;;;;;4862369;29;20231;-67
2023/03/13 04:34:53;;;;;;;20.43;11.40;;;3.30;99.90;;;;;;4877671;29;20234;-69
2023/03/13 04:37:40;;;;;;;20.83;11.13;;;3.40;99.90;;;;;;4878751;29;20226;-67
2023/03/13 04:40:39;;;;;;;18.70;10.30;;;3.40;99.90;;;;;;4862203;29;20296;-67
2023/03/13 04:43:34;;;;;;;19.47;10.97;;;3.30;99.90;;;;;;4876819;29;20217;-67
2023/03/13 04:46:10;;;;;;;20.50;11.67;;;3.40;99.90;;;;;;4879125;29;20204;-68
2023/03/13 04:49:05;;;;;;;19.37;11.77;;;3.40;99.90;;;;;;4875716;29;20239;-66
2023/03/13 04:51:54;;;;;;;21.27;12.50;;;3.40;99.90;;;;;;4878799;29;20281;-68
2023/03/13 04:54:52;;;;;;;21.17;12.23;;;3.30;99.90;;;;;;4869951;29;20595;-69
2023/03/13 04:57:47;;;;;;;21.47;12.20;;;3.40;99.90;;;;;;4875709;29;20233;-68
2023/03/13 05:00:40;;;;;;;19.53;12.47;;;3.40;99.90;;;;;;4839433;29;20813;-71
2023/03/13 05:03:25;;;;;;;18.37;11.63;;;3.40;99.90;;;;;;4824143;29;20622;-69
2023/03/13 05:06:12;;;;;;;19.53;11.63;;;3.40;99.90;;;;;;4839401;29;20239;-69
2023/03/13 05:09:21;;;;;;;17.10;11.87;;;3.50;99.90;;;;;;4773703;30;20312;-68
2023/03/13 05:12:13;;;;;;;20.93;12.07;;;3.70;99.90;;;;;;4767104;30;20297;-70
2023/03/13 05:15:07;;;;;;;17.83;11.77;;;3.70;99.90;;;;;;4754910;30;20295;-68
2023/03/13 05:17:53;;;;;;;18.83;11.43;;;3.70;99.90;;;;;;4714241;30;20247;-69
2023/03/13 05:20:26;;;;;;;21.97;14.67;;;3.60;99.90;;;;;;4749171;30;20222;-68
2023/03/13 05:22:55;;;;;;;25.00;12.40;;;3.60;99.90;;;;;;4749048;30;20242;-69
2023/03/13 05:25:46;;;;;;;21.33;13.17;;;3.60;99.90;;;;;;4679987;30;20290;-68
2023/03/13 05:28:36;;;;;;;25.60;14.37;;;3.60;99.90;;;;;;4716945;30;20226;-68
2023/03/13 05:31:28;;;;;;;19.50;12.83;;;3.40;99.90;;;;;;4731304;30;20218;-69
2023/03/13 05:34:32;;;;;;;21.90;12.60;;;3.40;99.90;;;;;;4716935;30;20305;-68
2023/03/13 05:37:25;;;;;;;22.20;13.63;;;3.30;99.90;;;;;;4725965;30;20211;-66
2023/03/13 05:40:18;;;;;;;23.13;13.60;;;3.40;99.90;;;;;;4731250;30;20265;-69
2023/03/13 05:43:19;;;;;;;23.33;13.17;;;3.50;99.90;;;;;;4731244;30;20263;-68
2023/03/13 06:07:34;;;;;;;24.60;13.43;;;3.80;99.90;;;;;;4684123;30;20576;-67
2023/03/13 06:10:04;;;;;;;28.33;14.30;;;3.80;99.90;;;;;;4730801;30;20761;-71
2023/03/13 06:12:34;;;;;;;24.50;14.83;;;3.80;99.90;;;;;;4730988;30;20214;-68
2023/03/13 06:15:06;;;;;;;23.77;14.97;;;3.80;99.90;;;;;;4730832;30;20222;-67
2023/03/13 06:17:53;;;;;;;24.33;14.27;;;3.90;99.90;;;;;;4742768;30;20239;-67
2023/03/13 06:20:22;;;;;;;24.33;14.83;;;3.80;99.90;;;;;;4748768;30;20201;-67
2023/03/13 06:22:52;;;;;;;26.67;15.37;;;3.90;99.90;;;;;;4755453;30;20252;-66
2023/03/13 06:25:21;;;;;;;23.27;13.73;;;3.90;99.90;;;;;;4784091;30;20213;-68
2023/03/13 06:27:50;;;;;;;21.53;14.20;;;4.00;99.90;;;;;;4769092;30;20310;-68
2023/03/13 06:30:19;;;;;;;28.27;16.40;;;4.00;99.90;;;;;;4854041;29;20306;-68
2023/03/13 06:32:49;;;;;;;25.47;14.80;;;3.90;99.90;;;;;;4858983;29;20201;-67
2023/03/13 06:35:18;;;;;;;26.90;14.87;;;3.90;99.90;;;;;;4859069;29;20208;-69
2023/03/13 06:37:46;;;;;;;27.40;14.67;;;3.70;99.90;;;;;;4859007;29;20203;-67
2023/03/13 06:40:17;;;;;;;28.03;14.80;;;3.90;99.90;;;;;;4858850;29;20204;-68
2023/03/13 06:42:45;;;;;;;24.97;14.67;;;4.00;99.90;;;;;;4858885;29;20309;-67
2023/03/13 06:45:14;;;;;;;26.17;14.43;;;4.20;99.90;;;;;;4858917;29;20265;-67
2023/03/13 06:47:43;;;;;;;25.17;13.97;;;4.20;99.90;;;;;;4842201;29;20725;-68
2023/03/13 06:50:12;;;;;;;25.67;14.50;;;4.20;99.90;;;;;;4858857;29;20205;-67
2023/03/13 06:52:41;;;;;;;26.17;14.37;;;4.40;99.90;;;;;;4858920;29;20210;-68
2023/03/13 06:55:12;;;;;;;29.00;14.00;;;4.50;99.90;;;;;;4858618;29;20205;-68
2023/03/13 06:57:42;;;;;;;27.80;15.33;;;4.50;99.90;;;;;;4858914;29;20225;-67
2023/03/13 07:00:12;;;;;;;23.87;13.70;;;4.30;99.90;;;;;;4860088;29;20212;-67
2023/03/13 07:02:40;;;;;;;22.20;13.80;;;4.40;99.90;;;;;;4862167;29;20875;-67
2023/03/13 07:05:09;;;;;;;24.87;13.93;;;4.50;99.90;;;;;;4845590;29;20221;-68
2023/03/13 07:07:38;;;;;;;23.17;14.27;;;4.50;99.90;;;;;;4862119;29;20626;-71
2023/03/13 07:10:09;;;;;;;22.73;13.23;;;4.40;99.90;;;;;;4862099;29;20208;-67
2023/03/13 07:12:38;;;;;;;24.60;14.23;;;4.60;99.90;;;;;;4862038;29;20244;-67
2023/03/13 07:15:08;;;;;;;25.27;13.30;;;4.70;99.90;;;;;;4862016;29;20203;-67
2023/03/13 07:17:37;;;;;;;22.17;13.27;;;4.70;99.90;;;;;;4861584;29;20321;-68
2023/03/13 07:20:09;;;;;;;20.23;13.40;;;4.80;99.90;;;;;;4862019;29;20216;-69
2023/03/13 07:22:38;;;;;;;24.93;13.87;;;4.70;99.90;;;;;;4861819;29;20231;-66
2023/03/13 07:25:08;;;;;;;21.23;11.87;;;4.90;99.90;;;;;;4861782;29;20212;-70
2023/03/13 07:27:37;;;;;;;20.10;12.57;;;5.10;99.90;;;;;;4829580;29;20252;-69
2023/03/13 07:30:08;;;;;;;22.13;13.13;;;5.10;99.90;;;;;;4861696;29;20289;-67
2023/03/13 07:32:37;;;;;;;24.10;13.27;;;5.10;99.90;;;;;;4861693;29;20294;-68
2023/03/13 07:35:06;;;;;;;18.97;12.07;;;5.10;99.90;;;;;;4861602;29;20196;-67
2023/03/13 07:37:35;;;;;;;18.37;12.47;;;5.20;99.90;;;;;;4829158;29;20218;-69
2023/03/13 07:40:04;;;;;;;23.67;12.53;;;5.30;99.90;;;;;;4861528;29;20208;-66
2023/03/13 07:42:33;;;;;;;18.50;11.87;;;5.40;99.90;;;;;;4844736;29;20604;-68
2023/03/13 07:45:01;;;;;;;22.33;12.60;;;5.60;99.90;;;;;;4861308;29;20228;-67
2023/03/13 07:47:34;;;;;;;18.50;12.20;;;5.60;99.90;;;;;;4844700;29;20215;-67
2023/03/13 07:50:03;;;;;;;18.73;11.80;;;5.70;99.90;;;;;;4861562;29;20752;-69
2023/03/13 07:52:32;;;;;;;18.70;11.80;;;5.90;99.90;;;;;;4861325;29;20674;-71
2023/03/13 07:55:00;;;;;;;21.40;11.77;;;5.90;99.90;;;;;;4861266;29;20215;-68
2023/03/13 07:57:29;;;;;;;19.77;12.57;;;5.90;99.90;;;;;;4861188;29;20252;-68
2023/03/13 07:59:58;;;;;;;19.23;12.83;;;5.70;99.90;;;;;;4861356;29;20299;-67
2023/03/13 08:02:26;;;;;;;22.03;13.40;;;5.60;99.90;;;;;;4860927;29;20299;-68
2023/03/13 08:04:56;;;;;;;20.93;13.33;;;5.80;99.90;;;;;;4861212;29;20207;-71
2023/03/13 08:07:26;;;;;;;17.63;13.20;;;5.90;99.90;;;;;;4861065;29;20194;-72
2023/03/13 08:09:55;;;;;;;27.77;13.60;;;5.80;99.90;;;;;;4860924;29;20571;-68
2023/03/13 08:12:23;;;;;;;21.70;13.50;;;5.80;99.90;;;;;;4860168;29;20292;-68
2023/03/13 08:14:52;;;;;;;23.87;13.37;;;5.70;99.90;;;;;;4843821;29;20213;-67
2023/03/13 08:17:21;;;;;;;23.57;13.63;;;5.80;99.90;;;;;;4853645;29;20604;-68
2023/03/13 08:19:49;;;;;;;26.97;15.13;;;5.80;99.90;;;;;;4871462;29;20210;-69
2023/03/13 08:22:19;;;;;;;31.80;16.63;;;6.10;99.90;;;;;;4858820;29;20675;-70
2023/03/13 08:24:48;;;;;;;22.73;14.03;;;6.30;99.90;;;;;;4879754;29;20679;-68
2023/03/13 08:27:17;;;;;;;21.77;13.90;;;6.50;99.90;;;;;;4879696;29;20611;-68
2023/03/13 08:29:46;;;;;;;23.30;14.67;;;6.30;99.90;;;;;;4862950;29;20723;-69
2023/03/13 08:32:16;;;;;;;25.60;15.67;;;6.20;99.90;;;;;;4879145;29;20701;-69
2023/03/13 08:34:45;;;;;;;22.10;14.47;;;6.20;99.90;;;;;;4862858;29;20214;-68
2023/03/13 08:37:15;;;;;;;22.83;15.27;;;6.20;99.90;;;;;;4879647;29;20196;-70
2023/03/13 08:39:47;;;;;;;24.30;14.37;;;6.10;99.90;;;;;;4879569;29;20206;-69
2023/03/13 08:42:16;;;;;;;22.27;14.33;;;6.00;99.90;;;;;;4879334;29;20209;-68
2023/03/13 08:44:45;;;;;;;27.53;15.00;;;6.00;99.90;;;;;;4879268;29;20223;-69
2023/03/13 08:47:14;;;;;;;22.50;15.17;;;6.10;99.90;;;;;;4878834;29;20681;-68
2023/03/13 08:49:42;;;;;;;27.67;15.17;;;6.20;99.90;;;;;;4862861;29;20263;-69
2023/03/13 08:52:11;;;;;;;28.30;16.10;;;6.10;99.90;;;;;;4879097;29;20231;-68
2023/03/13 08:54:40;;;;;;;29.63;15.30;;;6.00;99.90;;;;;;4879112;29;20275;-67
2023/03/13 08:57:10;;;;;;;25.03;15.87;;;6.20;99.90;;;;;;4862260;29;20754;-68
2023/03/13 08:59:38;;;;;;;21.43;13.13;;;6.30;99.90;;;;;;4879300;29;20203;-67
2023/03/13 09:02:09;;;;;;;25.43;14.60;;;6.40;99.90;;;;;;4862045;29;20208;-69
2023/03/13 09:04:38;;;;;;;25.93;14.43;;;6.50;99.90;;;;;;4878828;29;20251;-68
2023/03/13 09:07:06;;;;;;;24.47;15.83;;;6.40;99.90;;;;;;4878974;29;20710;-68
2023/03/13 09:09:35;;;;;;;22.30;15.57;;;6.50;99.90;;;;;;4878917;29;20283;-68
2023/03/13 09:12:04;;;;;;;26.47;15.60;;;6.60;99.90;;;;;;4878937;29;20219;-68
2023/03/13 09:14:34;;;;;;;25.07;14.77;;;6.70;99.90;;;;;;4878786;29;20204;-66
2023/03/13 09:17:04;;;;;;;26.93;14.63;;;6.70;99.90;;;;;;4878438;29;20596;-67
2023/03/13 09:19:34;;;;;;;27.13;15.40;;;6.60;99.90;;;;;;4878824;29;20207;-66
2023/03/13 09:22:02;;;;;;;26.50;15.43;;;6.70;99.90;;;;;;4878552;29;20208;-67
2023/03/13 09:24:31;;;;;;;25.90;15.53;;;6.50;99.90;;;;;;4862135;29;20240;-69
2023/03/13 09:27:00;;;;;;;24.83;16.13;;;6.60;99.90;;;;;;4878638;29;20203;-67
2023/03/13 09:29:29;;;;;;;23.30;13.53;;;6.50;99.90;;;;;;4878542;29;20608;-67
2023/03/13 09:32:00;;;;;;;20.13;12.90;;;6.40;99.90;;;;;;4861681;29;20219;-68
2023/03/13 09:34:28;;;;;;;27.60;16.40;;;6.50;99.90;;;;;;4878695;29;20287;-67
2023/03/13 09:36:57;;;;;;;26.77;15.80;;;6.50;99.90;;;;;;4878570;29;20196;-68
2023/03/13 09:39:26;;;;;;;25.27;14.93;;;6.60;99.90;;;;;;4861913;29;20747;-66
2023/03/13 09:42:02;;;;;;;29.00;17.87;;;6.60;99.90;;;;;;4861612;29;20624;-67
2023/03/13 09:44:39;;;;;;;27.83;15.37;;;6.70;99.90;;;;;;4878014;29;20260;-67
2023/03/13 09:47:17;;;;;;;25.57;15.03;;;6.80;99.90;;;;;;4861367;29;20218;-67
2023/03/13 09:49:50;;;;;;;24.20;15.17;;;6.80;99.90;;;;;;4878598;29;20319;-66
2023/03/13 09:52:21;;;;;;;21.43;14.97;;;6.80;99.90;;;;;;4878189;29;20200;-78
2023/03/13 09:54:57;;;;;;;20.33;13.40;;;6.80;99.90;;;;;;4878526;29;20200;-77
2023/03/13 09:57:33;;;;;;;20.77;14.73;;;7.00;99.90;;;;;;4861180;29;20203;-68
2023/03/13 10:00:16;;;;;;;24.63;14.17;;;7.30;99.90;;;;;;4874072;29;20663;-78
2023/03/13 10:02:55;;;;;;;19.57;13.37;;;7.20;99.90;;;;;;4864575;29;20627;-69
2023/03/13 10:05:26;;;;;;;21.43;13.07;;;7.10;99.90;;;;;;4878280;29;20231;-72
2023/03/13 10:08:16;;;;;;;20.73;12.63;;;7.10;99.90;;;;;;4878406;29;20228;-71
2023/03/13 10:10:49;;;;;;;17.93;12.80;;;7.20;99.90;;;;;;4878345;29;20208;-68
2023/03/13 10:13:22;;;;;;;20.30;13.33;;;7.20;99.90;;;;;;4876206;29;20204;-69
2023/03/13 10:15:55;;;;;;;17.97;13.03;;;7.20;99.90;;;;;;4878027;29;20208;-69
2023/03/13 10:18:26;;;;;;;17.47;13.13;;;7.10;99.90;;;;;;4878011;29;20323;-73
2023/03/13 10:20:59;;;;;;;25.90;12.97;;;6.90;99.90;;;;;;4873934;29;20205;-70
2023/03/13 10:23:41;;;;;;;19.07;11.30;;;7.00;99.90;;;;;;4859679;29;20196;-69
2023/03/13 10:26:19;;;;;;;20.17;12.20;;;7.10;99.90;;;;;;4859146;29;20216;-69
2023/03/13 10:28:50;;;;;;;16.07;11.77;;;7.20;99.90;;;;;;4859176;29;20201;-68
2023/03/13 10:31:27;;;;;;;15.23;10.57;;;7.10;99.90;;;;;;4858983;29;20228;-69
2023/03/13 10:34:06;;;;;;;17.87;11.90;;;7.20;99.90;;;;;;4859244;29;20279;-68
2023/03/13 10:36:45;;;;;;;16.07;11.13;;;7.20;99.90;;;;;;4862426;29;20308;-68
2023/03/13 10:39:16;;;;;;;15.17;10.93;;;7.40;99.90;;;;;;4878084;29;20663;-69
2023/03/13 10:41:46;;;;;;;18.33;11.73;;;7.60;99.90;;;;;;4881065;29;20662;-71
2023/03/13 10:44:17;;;;;;;14.43;10.93;;;7.60;99.90;;;;;;4881154;29;20231;-69
2023/03/13 10:46:49;;;;;;;16.33;11.20;;;7.70;99.90;;;;;;4881205;29;20610;-69
2023/03/13 10:49:21;;;;;;;15.77;9.87;;;7.70;99.90;;;;;;4881131;29;20682;-70
2023/03/13 10:51:52;;;;;;;16.80;11.43;;;7.60;99.90;;;;;;4880062;29;20607;-71
2023/03/13 10:54:23;;;;;;;17.63;12.03;;;7.50;99.90;;;;;;4874073;29;20253;-68
2023/03/13 10:56:54;;;;;;;18.67;10.50;;;7.40;99.90;;;;;;4862280;29;20555;-69
2023/03/13 10:59:25;;;;;;;15.20;11.83;;;7.30;99.90;;;;;;4876654;29;20272;-69
2023/03/13 11:02:00;;;;;;;12.53;10.27;;;7.20;99.90;;;;;;4880840;29;20283;-69
2023/03/13 11:04:33;;;;;;;14.90;10.20;;;7.40;99.90;;;;;;4880875;29;20220;-68
2023/03/13 11:07:06;;;;;;;15.00;10.90;;;7.40;99.90;;;;;;4862976;29;20753;-69
2023/03/13 11:09:38;;;;;;;14.23;10.10;;;7.50;99.90;;;;;;4862318;29;20655;-70
2023/03/13 11:12:14;;;;;;;14.97;10.80;;;7.40;99.90;;;;;;4862139;29;20209;-71
2023/03/13 11:14:44;;;;;;;13.63;9.73;;;7.60;99.90;;;;;;4862267;29;20203;-70
2023/03/13 11:17:24;;;;;;;16.63;11.27;;;7.50;99.90;;;;;;4861866;29;20224;-69
2023/03/13 11:20:13;;;;;;;17.73;9.17;;;7.50;99.90;;;;;;4867968;29;20228;-70
2023/03/13 11:22:53;;;;;;;15.73;11.20;;;7.40;99.90;;;;;;4863914;29;20215;-70
2023/03/13 11:25:28;;;;;;;12.87;8.23;;;7.70;99.90;;;;;;4863990;29;20587;-73
2023/03/13 11:28:15;;;;;;;13.87;9.67;;;7.70;99.90;;;;;;4880224;29;20201;-70
2023/03/13 11:30:57;;;;;;;12.30;9.47;;;7.70;99.90;;;;;;4867833;29;20216;-70
2023/03/13 11:33:35;;;;;;;13.20;9.03;;;7.80;99.90;;;;;;4861725;29;20209;-68
2023/03/13 11:36:15;;;;;;;11.03;8.77;;;7.50;99.90;;;;;;4861857;29;20287;-70
2023/03/13 11:38:48;;;;;;;16.90;9.57;;;7.50;99.90;;;;;;4845320;29;20200;-70
2023/03/13 11:41:43;;;;;;;11.87;8.90;;;7.50;99.90;;;;;;4861612;29;20671;-69
2023/03/13 11:44:25;;;;;;;10.03;8.37;;;7.50;99.90;;;;;;4861353;29;20738;-69
2023/03/13 11:47:05;;;;;;;13.97;8.97;;;7.50;99.90;;;;;;4860471;29;20209;-70
2023/03/13 11:49:55;;;;;;;12.13;8.53;;;7.40;99.90;;;;;;4845116;29;20208;-70
2023/03/13 11:52:39;;;;;;;15.43;9.27;;;7.40;99.90;;;;;;4861447;29;20205;-69
2023/03/13 11:55:25;;;;;;;13.10;9.77;;;7.30;99.90;;;;;;4844750;29;20209;-71
2023/03/13 11:58:05;;;;;;;17.67;10.60;;;7.50;99.90;;;;;;4844291;29;20209;-68
2023/03/13 12:00:37;;;;;;;11.23;9.50;;;7.50;99.90;;;;;;4861331;29;20208;-73
2023/03/13 12:03:15;;;;;;;14.40;10.63;;;7.60;99.90;;;;;;4864459;29;20282;-68
2023/03/13 12:05:47;;;;;;;10.53;9.33;;;7.60;99.90;;;;;;4869624;29;20256;-71
2023/03/13 12:08:24;;;;;;;10.93;8.97;;;7.50;99.90;;;;;;4861191;29;20260;-68
2023/03/13 12:11:01;;;;;;;11.27;9.83;;;7.50;99.90;;;;;;4861081;29;20203;-69
2023/03/13 12:13:34;;;;;;;20.03;11.33;;;7.40;99.90;;;;;;4872380;29;20211;-68
2023/03/13 12:16:11;;;;;;;14.23;9.70;;;7.30;99.90;;;;;;4879529;29;20200;-71
2023/03/13 12:18:45;;;;;;;17.63;10.97;;;7.30;99.90;;;;;;4862847;29;20666;-69
2023/03/13 12:21:19;;;;;;;19.30;11.37;;;7.30;99.90;;;;;;4879836;29;20204;-69
2023/03/13 12:23:58;;;;;;;17.17;10.13;;;7.30;99.90;;;;;;4879428;29;20199;-70
2023/03/13 12:26:37;;;;;;;13.47;10.13;;;7.40;99.90;;;;;;4879325;29;20249;-72
2023/03/13 12:29:15;;;;;;;17.63;10.33;;;7.40;99.90;;;;;;4879059;29;20297;-70
2023/03/13 12:31:50;;;;;;;11.77;9.43;;;7.40;99.90;;;;;;4862862;29;20594;-69
2023/03/13 12:34:26;;;;;;;15.53;10.53;;;7.40;99.90;;;;;;4879286;29;20207;-69
2023/03/13 12:37:05;;;;;;;13.53;10.57;;;7.40;99.90;;;;;;4785470;30;20215;-70
2023/03/13 12:39:42;;;;;;;15.33;11.10;;;7.50;99.90;;;;;;4784679;30;20279;-71
2023/03/13 12:42:23;;;;;;;12.73;11.07;;;7.50;99.90;;;;;;4785454;30;20223;-71
2023/03/13 12:44:52;;;;;;;11.83;9.70;;;7.60;99.90;;;;;;4785380;30;20282;-71
2023/03/13 12:47:29;;;;;;;15.27;10.37;;;7.60;99.90;;;;;;4785497;30;20701;-72
2023/03/13 12:50:35;;;;;;;11.87;9.50;;;7.70;99.90;;;;;;4785296;30;20206;-69
2023/03/13 12:53:33;;;;;;;17.30;10.90;;;7.80;99.90;;;;;;4732048;30;20232;-70
2023/03/13 12:56:36;;;;;;;15.90;11.00;;;7.90;99.90;;;;;;4811955;29;20213;-69
2023/03/13 12:59:19;;;;;;;13.50;9.47;;;8.10;99.90;;;;;;4714294;30;20271;-69
2023/03/13 13:01:50;;;;;;;11.17;9.07;;;8.10;99.90;;;;;;4714482;30;20249;-69
2023/03/13 13:04:22;;;;;;;10.53;8.50;;;8.10;99.90;;;;;;4714577;30;20345;-68
2023/03/13 13:07:01;;;;;;;9.40;8.37;;;8.20;99.90;;;;;;4714204;30;20249;-75
2023/03/13 13:09:32;;;;;;;22.20;14.90;;;8.30;99.90;;;;;;4713973;30;20227;-69
2023/03/13 13:12:04;;;;;;;10.50;8.20;;;8.40;99.90;;;;;;4714022;30;20593;-68
2023/03/13 13:15:10;;;;;;;8.87;7.73;;;8.40;99.90;;;;;;4714147;30;20214;-70
2023/03/13 13:17:54;;;;;;;7.93;7.13;;;8.40;99.90;;;;;;4741573;30;20255;-68
2023/03/13 13:20:38;;;;;;;9.47;7.77;;;8.40;99.90;;;;;;4762523;30;20216;-71
2023/03/13 13:23:42;;;;;;;8.37;7.20;;;8.40;99.90;;;;;;4771736;29;20221;-69
2023/03/13 13:26:47;;;;;;;11.43;7.40;;;8.30;99.90;;;;;;4743166;30;20331;-69
2023/03/13 13:29:54;;;;;;;8.67;6.53;;;8.30;99.90;;;;;;4764831;30;20253;-69
2023/03/13 13:32:42;;;;;;;8.60;6.90;;;8.50;99.90;;;;;;4766818;30;20211;-68
2023/03/13 13:35:31;;;;;;;6.83;6.13;;;8.50;99.90;;;;;;4750288;30;20253;-67
2023/03/13 13:38:39;;;;;;;7.50;6.77;;;8.60;99.90;;;;;;4820276;29;20214;-68
2023/03/13 13:41:34;;;;;;;9.53;7.23;;;8.70;99.90;;;;;;4805687;29;20212;-68
2023/03/13 13:44:22;;;;;;;7.40;6.67;;;8.60;99.90;;;;;;4820672;29;20221;-69